sensor_id;sensor_type;location;lat;lon;timestamp;P1;durP1;ratioP1;P2;durP2;ratioP2
79261;SDS011;68699;48.220;16.358;2023-07-08T00:00:25;4.60;;;4.10;;
79261;SDS011;68699;48.220;16.358;2023-07-08T00:02:51;4.60;;;3.70;;
79261;SDS011;68699;48.220;16.358;2023-07-08T00:05:18;4.10;;;3.70;;
79261;SDS011;68699;48.220;16.358;2023-07-08T00:07:45;4.27;;;3.90;;
79261;SDS011;68699;48.220;16.358;2023-07-08T00:12:41;4.83;;;3.67;;
79261;SDS011;68699;48.220;16.358;2023-07-08T00:15:07;3.90;;;3.47;;
79261;SDS011;68699;48.220;16.358;2023-07-08T00:17:33;4.10;;;3.60;;
79261;SDS011;68699;48.220;16.358;2023-07-08T00:19:59;3.97;;;3.50;;
79261;SDS011;68699;48.220;16.358;2023-07-08T00:22:26;4.73;;;3.60;;
79261;SDS011;68699;48.220;16.358;2023-07-08T00:24:52;3.97;;;3.60;;
79261;SDS011;68699;48.220;16.358;2023-07-08T00:27:18;4.13;;;3.83;;
79261;SDS011;68699;48.220;16.358;2023-07-08T00:29:44;4.20;;;3.70;;
79261;SDS011;68699;48.220;16.358;2023-07-08T00:32:11;4.30;;;3.77;;
79261;SDS011;68699;48.220;16.358;2023-07-08T00:34:38;4.70;;;3.90;;
79261;SDS011;68699;48.220;16.358;2023-07-08T00:37:04;3.90;;;3.50;;
79261;SDS011;68699;48.220;16.358;2023-07-08T00:39:33;6.10;;;3.60;;
79261;SDS011;68699;48.220;16.358;2023-07-08T00:42:06;3.87;;;3.03;;
79261;SDS011;68699;48.220;16.358;2023-07-08T00:44:36;4.27;;;3.87;;
79261;SDS011;68699;48.220;16.358;2023-07-08T00:47:04;3.77;;;3.47;;
79261;SDS011;68699;48.220;16.358;2023-07-08T00:49:34;4.03;;;3.40;;
79261;SDS011;68699;48.220;16.358;2023-07-08T00:52:19;5.47;;;3.67;;
79261;SDS011;68699;48.220;16.358;2023-07-08T00:54:48;5.27;;;3.77;;
79261;SDS011;68699;48.220;16.358;2023-07-08T00:57:14;4.30;;;3.77;;
79261;SDS011;68699;48.220;16.358;2023-07-08T00:59:52;5.80;;;4.00;;
79261;SDS011;68699;48.220;16.358;2023-07-08T01:02:19;3.97;;;3.63;;
79261;SDS011;68699;48.220;16.358;2023-07-08T01:04:51;4.00;;;3.60;;
79261;SDS011;68699;48.220;16.358;2023-07-08T01:07:18;4.07;;;3.67;;
79261;SDS011;68699;48.220;16.358;2023-07-08T01:09:47;4.10;;;3.70;;
79261;SDS011;68699;48.220;16.358;2023-07-08T01:12:16;4.40;;;3.50;;
79261;SDS011;68699;48.220;16.358;2023-07-08T01:14:44;4.37;;;3.97;;
79261;SDS011;68699;48.220;16.358;2023-07-08T01:17:12;4.67;;;4.00;;
79261;SDS011;68699;48.220;16.358;2023-07-08T01:19:42;4.23;;;3.80;;
79261;SDS011;68699;48.220;16.358;2023-07-08T01:22:12;3.87;;;3.57;;
79261;SDS011;68699;48.220;16.358;2023-07-08T01:24:40;4.13;;;3.53;;
79261;SDS011;68699;48.220;16.358;2023-07-08T01:27:09;6.53;;;3.70;;
79261;SDS011;68699;48.220;16.358;2023-07-08T01:29:36;4.33;;;3.50;;
79261;SDS011;68699;48.220;16.358;2023-07-08T01:32:02;4.13;;;3.73;;
79261;SDS011;68699;48.220;16.358;2023-07-08T01:34:29;4.20;;;3.80;;
79261;SDS011;68699;48.220;16.358;2023-07-08T01:36:55;4.00;;;3.70;;
79261;SDS011;68699;48.220;16.358;2023-07-08T01:39:23;4.83;;;3.87;;
79261;SDS011;68699;48.220;16.358;2023-07-08T01:41:49;4.37;;;3.83;;
79261;SDS011;68699;48.220;16.358;2023-07-08T01:44:50;4.37;;;3.90;;
79261;SDS011;68699;48.220;16.358;2023-07-08T01:47:16;5.30;;;3.83;;
79261;SDS011;68699;48.220;16.358;2023-07-08T01:49:43;4.10;;;3.70;;
79261;SDS011;68699;48.220;16.358;2023-07-08T01:52:10;3.90;;;3.60;;
79261;SDS011;68699;48.220;16.358;2023-07-08T01:54:37;4.33;;;3.97;;
79261;SDS011;68699;48.220;16.358;2023-07-08T01:57:03;4.70;;;3.70;;
79261;SDS011;68699;48.220;16.358;2023-07-08T01:59:29;5.47;;;3.60;;
79261;SDS011;68699;48.220;16.358;2023-07-08T02:01:55;3.90;;;3.57;;
79261;SDS011;68699;48.220;16.358;2023-07-08T02:04:22;4.07;;;3.27;;
79261;SDS011;68699;48.220;16.358;2023-07-08T02:06:56;3.93;;;3.63;;
79261;SDS011;68699;48.220;16.358;2023-07-08T02:09:22;4.53;;;3.60;;
79261;SDS011;68699;48.220;16.358;2023-07-08T02:11:50;5.07;;;3.90;;
79261;SDS011;68699;48.220;16.358;2023-07-08T02:14:16;3.57;;;3.27;;
79261;SDS011;68699;48.220;16.358;2023-07-08T02:16:42;3.80;;;3.40;;
79261;SDS011;68699;48.220;16.358;2023-07-08T02:19:09;3.53;;;3.23;;
79261;SDS011;68699;48.220;16.358;2023-07-08T02:21:36;5.23;;;4.00;;
79261;SDS011;68699;48.220;16.358;2023-07-08T02:24:03;4.20;;;3.57;;
79261;SDS011;68699;48.220;16.358;2023-07-08T02:26:29;4.80;;;3.50;;
79261;SDS011;68699;48.220;16.358;2023-07-08T02:28:58;4.57;;;3.50;;
79261;SDS011;68699;48.220;16.358;2023-07-08T02:31:24;4.07;;;3.63;;
79261;SDS011;68699;48.220;16.358;2023-07-08T02:33:51;4.77;;;3.43;;
79261;SDS011;68699;48.220;16.358;2023-07-08T02:36:17;3.70;;;3.40;;
79261;SDS011;68699;48.220;16.358;2023-07-08T02:38:43;4.97;;;3.80;;
79261;SDS011;68699;48.220;16.358;2023-07-08T02:41:10;5.33;;;3.70;;
79261;SDS011;68699;48.220;16.358;2023-07-08T02:43:37;9.43;;;4.27;;
79261;SDS011;68699;48.220;16.358;2023-07-08T02:46:03;6.83;;;4.40;;
79261;SDS011;68699;48.220;16.358;2023-07-08T02:48:29;5.83;;;4.13;;
79261;SDS011;68699;48.220;16.358;2023-07-08T02:50:59;6.10;;;3.80;;
79261;SDS011;68699;48.220;16.358;2023-07-08T02:53:25;4.40;;;4.00;;
79261;SDS011;68699;48.220;16.358;2023-07-08T02:55:51;5.00;;;4.00;;
79261;SDS011;68699;48.220;16.358;2023-07-08T02:58:17;5.43;;;3.80;;
79261;SDS011;68699;48.220;16.358;2023-07-08T03:00:43;5.93;;;4.23;;
79261;SDS011;68699;48.220;16.358;2023-07-08T03:03:10;6.83;;;4.63;;
79261;SDS011;68699;48.220;16.358;2023-07-08T03:05:37;9.53;;;4.80;;
79261;SDS011;68699;48.220;16.358;2023-07-08T03:08:03;10.93;;;4.97;;
79261;SDS011;68699;48.220;16.358;2023-07-08T03:10:29;7.57;;;4.47;;
79261;SDS011;68699;48.220;16.358;2023-07-08T03:12:55;12.37;;;5.37;;
79261;SDS011;68699;48.220;16.358;2023-07-08T03:15:21;12.13;;;5.30;;
79261;SDS011;68699;48.220;16.358;2023-07-08T03:17:47;10.20;;;5.13;;
79261;SDS011;68699;48.220;16.358;2023-07-08T03:20:13;14.23;;;5.60;;
79261;SDS011;68699;48.220;16.358;2023-07-08T03:22:39;14.57;;;5.67;;
79261;SDS011;68699;48.220;16.358;2023-07-08T03:25:06;12.43;;;5.70;;
79261;SDS011;68699;48.220;16.358;2023-07-08T03:27:32;12.77;;;5.60;;
79261;SDS011;68699;48.220;16.358;2023-07-08T03:29:58;11.23;;;4.87;;
79261;SDS011;68699;48.220;16.358;2023-07-08T03:32:24;9.30;;;4.80;;
79261;SDS011;68699;48.220;16.358;2023-07-08T03:34:50;6.27;;;4.27;;
79261;SDS011;68699;48.220;16.358;2023-07-08T03:37:17;7.97;;;4.90;;
79261;SDS011;68699;48.220;16.358;2023-07-08T03:39:43;8.20;;;5.20;;
79261;SDS011;68699;48.220;16.358;2023-07-08T03:42:09;9.10;;;5.30;;
79261;SDS011;68699;48.220;16.358;2023-07-08T03:44:35;7.87;;;4.67;;
79261;SDS011;68699;48.220;16.358;2023-07-08T03:47:01;8.27;;;4.43;;
79261;SDS011;68699;48.220;16.358;2023-07-08T03:49:27;8.80;;;4.63;;
79261;SDS011;68699;48.220;16.358;2023-07-08T03:51:54;8.73;;;4.83;;
79261;SDS011;68699;48.220;16.358;2023-07-08T03:54:21;8.43;;;4.87;;
79261;SDS011;68699;48.220;16.358;2023-07-08T03:56:47;7.40;;;5.33;;
79261;SDS011;68699;48.220;16.358;2023-07-08T03:59:14;6.27;;;4.83;;
79261;SDS011;68699;48.220;16.358;2023-07-08T04:01:40;7.53;;;4.37;;
79261;SDS011;68699;48.220;16.358;2023-07-08T04:04:13;6.00;;;4.47;;
79261;SDS011;68699;48.220;16.358;2023-07-08T04:06:39;6.53;;;4.50;;
79261;SDS011;68699;48.220;16.358;2023-07-08T04:09:06;7.50;;;4.50;;
79261;SDS011;68699;48.220;16.358;2023-07-08T04:11:32;6.07;;;4.70;;
79261;SDS011;68699;48.220;16.358;2023-07-08T04:13:58;7.33;;;4.30;;
79261;SDS011;68699;48.220;16.358;2023-07-08T04:16:25;6.70;;;4.67;;
79261;SDS011;68699;48.220;16.358;2023-07-08T04:18:55;4.83;;;4.30;;
79261;SDS011;68699;48.220;16.358;2023-07-08T04:21:23;5.50;;;4.10;;
79261;SDS011;68699;48.220;16.358;2023-07-08T04:23:52;5.17;;;4.30;;
79261;SDS011;68699;48.220;16.358;2023-07-08T04:26:19;5.47;;;4.57;;
79261;SDS011;68699;48.220;16.358;2023-07-08T04:28:45;6.83;;;4.20;;
79261;SDS011;68699;48.220;16.358;2023-07-08T04:31:11;8.63;;;4.63;;
79261;SDS011;68699;48.220;16.358;2023-07-08T04:33:37;8.13;;;4.77;;
79261;SDS011;68699;48.220;16.358;2023-07-08T04:36:03;7.30;;;4.53;;
79261;SDS011;68699;48.220;16.358;2023-07-08T04:38:30;5.00;;;4.50;;
79261;SDS011;68699;48.220;16.358;2023-07-08T04:40:57;4.70;;;4.20;;
79261;SDS011;68699;48.220;16.358;2023-07-08T04:43:23;5.00;;;4.10;;
79261;SDS011;68699;48.220;16.358;2023-07-08T04:45:54;4.90;;;4.43;;
79261;SDS011;68699;48.220;16.358;2023-07-08T04:48:20;5.70;;;4.60;;
79261;SDS011;68699;48.220;16.358;2023-07-08T04:50:48;6.07;;;4.60;;
79261;SDS011;68699;48.220;16.358;2023-07-08T04:53:14;4.87;;;3.93;;
79261;SDS011;68699;48.220;16.358;2023-07-08T04:55:44;4.57;;;4.10;;
79261;SDS011;68699;48.220;16.358;2023-07-08T04:58:11;4.67;;;4.20;;
79261;SDS011;68699;48.220;16.358;2023-07-08T05:00:37;4.60;;;4.20;;
79261;SDS011;68699;48.220;16.358;2023-07-08T05:03:03;5.53;;;4.30;;
79261;SDS011;68699;48.220;16.358;2023-07-08T05:05:29;4.30;;;3.90;;
79261;SDS011;68699;48.220;16.358;2023-07-08T05:07:55;5.17;;;4.17;;
79261;SDS011;68699;48.220;16.358;2023-07-08T05:10:21;4.90;;;4.43;;
79261;SDS011;68699;48.220;16.358;2023-07-08T05:12:51;4.90;;;4.23;;
79261;SDS011;68699;48.220;16.358;2023-07-08T05:15:17;5.40;;;4.50;;
79261;SDS011;68699;48.220;16.358;2023-07-08T05:17:43;8.53;;;4.50;;
79261;SDS011;68699;48.220;16.358;2023-07-08T05:20:12;4.60;;;4.10;;
79261;SDS011;68699;48.220;16.358;2023-07-08T05:22:38;5.20;;;4.20;;
79261;SDS011;68699;48.220;16.358;2023-07-08T05:25:04;4.53;;;4.07;;
79261;SDS011;68699;48.220;16.358;2023-07-08T05:27:31;6.20;;;5.00;;
79261;SDS011;68699;48.220;16.358;2023-07-08T05:30:01;5.07;;;4.53;;
79261;SDS011;68699;48.220;16.358;2023-07-08T05:32:27;5.70;;;4.30;;
79261;SDS011;68699;48.220;16.358;2023-07-08T05:34:53;4.60;;;4.20;;
79261;SDS011;68699;48.220;16.358;2023-07-08T05:37:20;5.20;;;4.47;;
79261;SDS011;68699;48.220;16.358;2023-07-08T05:39:50;6.70;;;4.10;;
79261;SDS011;68699;48.220;16.358;2023-07-08T05:42:16;5.27;;;4.77;;
79261;SDS011;68699;48.220;16.358;2023-07-08T05:44:42;5.23;;;4.30;;
79261;SDS011;68699;48.220;16.358;2023-07-08T05:47:08;5.00;;;4.50;;
79261;SDS011;68699;48.220;16.358;2023-07-08T05:49:35;4.27;;;3.97;;
79261;SDS011;68699;48.220;16.358;2023-07-08T05:52:01;6.13;;;4.20;;
79261;SDS011;68699;48.220;16.358;2023-07-08T05:54:33;6.20;;;4.53;;
79261;SDS011;68699;48.220;16.358;2023-07-08T05:56:59;5.20;;;4.70;;
79261;SDS011;68699;48.220;16.358;2023-07-08T05:59:25;7.30;;;5.00;;
79261;SDS011;68699;48.220;16.358;2023-07-08T06:01:52;5.77;;;4.50;;
79261;SDS011;68699;48.220;16.358;2023-07-08T06:04:18;4.80;;;4.40;;
79261;SDS011;68699;48.220;16.358;2023-07-08T06:06:44;5.43;;;4.93;;
79261;SDS011;68699;48.220;16.358;2023-07-08T06:09:10;5.37;;;4.77;;
79261;SDS011;68699;48.220;16.358;2023-07-08T06:11:36;5.37;;;4.87;;
79261;SDS011;68699;48.220;16.358;2023-07-08T06:14:02;5.17;;;4.70;;
79261;SDS011;68699;48.220;16.358;2023-07-08T06:16:29;5.97;;;5.17;;
79261;SDS011;68699;48.220;16.358;2023-07-08T06:18:58;5.90;;;4.90;;
79261;SDS011;68699;48.220;16.358;2023-07-08T06:21:24;5.37;;;4.87;;
79261;SDS011;68699;48.220;16.358;2023-07-08T06:23:50;5.63;;;4.77;;
79261;SDS011;68699;48.220;16.358;2023-07-08T06:26:16;8.47;;;4.57;;
79261;SDS011;68699;48.220;16.358;2023-07-08T06:28:43;5.07;;;4.57;;
79261;SDS011;68699;48.220;16.358;2023-07-08T06:31:09;5.63;;;4.90;;
79261;SDS011;68699;48.220;16.358;2023-07-08T06:33:35;4.83;;;4.33;;
79261;SDS011;68699;48.220;16.358;2023-07-08T06:36:01;6.20;;;5.10;;
79261;SDS011;68699;48.220;16.358;2023-07-08T06:38:28;5.10;;;4.60;;
79261;SDS011;68699;48.220;16.358;2023-07-08T06:40:54;4.90;;;4.50;;
79261;SDS011;68699;48.220;16.358;2023-07-08T06:43:20;5.67;;;5.10;;
79261;SDS011;68699;48.220;16.358;2023-07-08T06:45:46;5.93;;;4.40;;
79261;SDS011;68699;48.220;16.358;2023-07-08T06:48:12;8.27;;;5.00;;
79261;SDS011;68699;48.220;16.358;2023-07-08T06:50:41;6.27;;;5.10;;
79261;SDS011;68699;48.220;16.358;2023-07-08T06:53:07;5.17;;;4.43;;
79261;SDS011;68699;48.220;16.358;2023-07-08T06:55:34;5.33;;;4.67;;
79261;SDS011;68699;48.220;16.358;2023-07-08T06:58:00;5.40;;;4.90;;
79261;SDS011;68699;48.220;16.358;2023-07-08T07:00:27;5.70;;;5.17;;
79261;SDS011;68699;48.220;16.358;2023-07-08T07:02:53;5.10;;;4.53;;
79261;SDS011;68699;48.220;16.358;2023-07-08T07:05:19;4.80;;;4.32;;
79261;SDS011;68699;48.220;16.358;2023-07-08T07:07:45;5.07;;;4.57;;
79261;SDS011;68699;48.220;16.358;2023-07-08T07:10:11;5.82;;;4.80;;
79261;SDS011;68699;48.220;16.358;2023-07-08T07:12:38;5.20;;;4.70;;
79261;SDS011;68699;48.220;16.358;2023-07-08T07:15:04;6.53;;;4.50;;
79261;SDS011;68699;48.220;16.358;2023-07-08T07:17:30;5.35;;;4.85;;
79261;SDS011;68699;48.220;16.358;2023-07-08T07:19:56;5.35;;;4.60;;
79261;SDS011;68699;48.220;16.358;2023-07-08T07:22:23;6.07;;;5.18;;
79261;SDS011;68699;48.220;16.358;2023-07-08T07:24:49;4.93;;;4.43;;
79261;SDS011;68699;48.220;16.358;2023-07-08T07:27:15;4.97;;;4.50;;
79261;SDS011;68699;48.220;16.358;2023-07-08T07:29:42;5.65;;;4.57;;
79261;SDS011;68699;48.220;16.358;2023-07-08T07:32:09;4.80;;;4.40;;
79261;SDS011;68699;48.220;16.358;2023-07-08T07:34:36;4.70;;;4.30;;
79261;SDS011;68699;48.220;16.358;2023-07-08T07:37:02;4.88;;;4.47;;
79261;SDS011;68699;48.220;16.358;2023-07-08T07:39:28;5.07;;;4.60;;
79261;SDS011;68699;48.220;16.358;2023-07-08T07:41:54;5.53;;;4.20;;
79261;SDS011;68699;48.220;16.358;2023-07-08T07:44:20;5.13;;;4.72;;
79261;SDS011;68699;48.220;16.358;2023-07-08T07:46:47;5.70;;;4.20;;
79261;SDS011;68699;48.220;16.358;2023-07-08T07:49:13;5.25;;;4.40;;
79261;SDS011;68699;48.220;16.358;2023-07-08T07:51:39;4.63;;;4.22;;
79261;SDS011;68699;48.220;16.358;2023-07-08T07:54:05;7.60;;;4.75;;
79261;SDS011;68699;48.220;16.358;2023-07-08T07:56:31;4.95;;;4.03;;
79261;SDS011;68699;48.220;16.358;2023-07-08T07:58:58;6.03;;;4.68;;
79261;SDS011;68699;48.220;16.358;2023-07-08T08:01:24;5.05;;;4.13;;
79261;SDS011;68699;48.220;16.358;2023-07-08T08:03:50;5.45;;;4.70;;
79261;SDS011;68699;48.220;16.358;2023-07-08T08:06:17;4.88;;;4.40;;
79261;SDS011;68699;48.220;16.358;2023-07-08T08:08:44;4.47;;;4.07;;
79261;SDS011;68699;48.220;16.358;2023-07-08T08:11:10;5.15;;;4.40;;
79261;SDS011;68699;48.220;16.358;2023-07-08T08:13:36;5.00;;;4.18;;
79261;SDS011;68699;48.220;16.358;2023-07-08T08:16:03;5.63;;;4.80;;
79261;SDS011;68699;48.220;16.358;2023-07-08T08:18:30;4.63;;;4.22;;
79261;SDS011;68699;48.220;16.358;2023-07-08T08:20:56;4.18;;;3.78;;
79261;SDS011;68699;48.220;16.358;2023-07-08T08:23:22;4.45;;;4.05;;
79261;SDS011;68699;48.220;16.358;2023-07-08T08:25:50;4.60;;;4.07;;
79261;SDS011;68699;48.220;16.358;2023-07-08T08:28:16;5.35;;;4.88;;
79261;SDS011;68699;48.220;16.358;2023-07-08T08:30:46;4.47;;;4.13;;
79261;SDS011;68699;48.220;16.358;2023-07-08T08:33:13;4.60;;;4.20;;
79261;SDS011;68699;48.220;16.358;2023-07-08T08:35:39;4.78;;;4.38;;
79261;SDS011;68699;48.220;16.358;2023-07-08T08:38:05;6.13;;;4.70;;
79261;SDS011;68699;48.220;16.358;2023-07-08T08:40:32;5.93;;;4.25;;
79261;SDS011;68699;48.220;16.358;2023-07-08T08:45:27;4.38;;;4.03;;
79261;SDS011;68699;48.220;16.358;2023-07-08T08:47:58;5.18;;;4.53;;
79261;SDS011;68699;48.220;16.358;2023-07-08T08:50:43;4.43;;;4.10;;
79261;SDS011;68699;48.220;16.358;2023-07-08T08:53:12;5.10;;;3.95;;
79261;SDS011;68699;48.220;16.358;2023-07-08T08:55:39;4.22;;;3.88;;
79261;SDS011;68699;48.220;16.358;2023-07-08T08:58:09;4.00;;;3.60;;
79261;SDS011;68699;48.220;16.358;2023-07-08T09:00:44;4.35;;;3.88;;
79261;SDS011;68699;48.220;16.358;2023-07-08T09:03:15;4.25;;;3.90;;
79261;SDS011;68699;48.220;16.358;2023-07-08T09:05:45;4.60;;;3.90;;
79261;SDS011;68699;48.220;16.358;2023-07-08T09:13:28;4.32;;;3.70;;
79261;SDS011;68699;48.220;16.358;2023-07-08T09:15:59;4.45;;;3.80;;
79261;SDS011;68699;48.220;16.358;2023-07-08T09:18:29;4.43;;;3.78;;
79261;SDS011;68699;48.220;16.358;2023-07-08T09:20:56;6.20;;;4.18;;
79261;SDS011;68699;48.220;16.358;2023-07-08T09:23:28;4.90;;;3.67;;
79261;SDS011;68699;48.220;16.358;2023-07-08T09:28:34;6.10;;;4.25;;
79261;SDS011;68699;48.220;16.358;2023-07-08T09:31:10;4.07;;;3.72;;
79261;SDS011;68699;48.220;16.358;2023-07-08T09:33:38;4.32;;;3.92;;
79261;SDS011;68699;48.220;16.358;2023-07-08T09:36:15;4.57;;;3.90;;
79261;SDS011;68699;48.220;16.358;2023-07-08T09:38:41;4.68;;;3.90;;
79261;SDS011;68699;48.220;16.358;2023-07-08T09:41:08;4.07;;;3.75;;
79261;SDS011;68699;48.220;16.358;2023-07-08T09:43:34;5.57;;;3.50;;
79261;SDS011;68699;48.220;16.358;2023-07-08T09:46:02;5.03;;;3.90;;
79261;SDS011;68699;48.220;16.358;2023-07-08T09:48:38;4.05;;;3.65;;
79261;SDS011;68699;48.220;16.358;2023-07-08T09:51:04;4.38;;;3.90;;
79261;SDS011;68699;48.220;16.358;2023-07-08T09:53:33;5.20;;;3.50;;
79261;SDS011;68699;48.220;16.358;2023-07-08T09:56:00;4.53;;;4.00;;
79261;SDS011;68699;48.220;16.358;2023-07-08T09:58:35;5.43;;;3.63;;
79261;SDS011;68699;48.220;16.358;2023-07-08T10:01:08;4.40;;;3.65;;
79261;SDS011;68699;48.220;16.358;2023-07-08T10:03:35;3.97;;;3.58;;
79261;SDS011;68699;48.220;16.358;2023-07-08T10:06:03;3.88;;;3.47;;
79261;SDS011;68699;48.220;16.358;2023-07-08T10:08:34;3.92;;;3.47;;
79261;SDS011;68699;48.220;16.358;2023-07-08T10:11:11;4.25;;;3.58;;
79261;SDS011;68699;48.220;16.358;2023-07-08T10:13:59;3.80;;;3.50;;
79261;SDS011;68699;48.220;16.358;2023-07-08T10:18:52;4.00;;;3.70;;
79261;SDS011;68699;48.220;16.358;2023-07-08T10:26:33;3.90;;;3.50;;
79261;SDS011;68699;48.220;16.358;2023-07-08T10:41:23;4.15;;;3.78;;
79261;SDS011;68699;48.220;16.358;2023-07-08T10:46:46;5.50;;;3.65;;
79261;SDS011;68699;48.220;16.358;2023-07-08T10:54:32;4.50;;;4.10;;
79261;SDS011;68699;48.220;16.358;2023-07-08T10:57:10;3.85;;;3.47;;
79261;SDS011;68699;48.220;16.358;2023-07-08T10:59:48;4.53;;;3.70;;
79261;SDS011;68699;48.220;16.358;2023-07-08T11:09:56;3.88;;;3.58;;
79261;SDS011;68699;48.220;16.358;2023-07-08T11:12:31;3.83;;;3.45;;
79261;SDS011;68699;48.220;16.358;2023-07-08T11:22:38;4.00;;;3.67;;
79261;SDS011;68699;48.220;16.358;2023-07-08T11:25:13;3.75;;;3.45;;
79261;SDS011;68699;48.220;16.358;2023-07-08T11:27:42;5.30;;;3.75;;
79261;SDS011;68699;48.220;16.358;2023-07-08T11:32:37;5.47;;;3.70;;
79261;SDS011;68699;48.220;16.358;2023-07-08T11:35:05;4.00;;;3.58;;
79261;SDS011;68699;48.220;16.358;2023-07-08T11:37:32;3.47;;;3.20;;
79261;SDS011;68699;48.220;16.358;2023-07-08T11:40:19;4.45;;;3.38;;
79261;SDS011;68699;48.220;16.358;2023-07-08T11:42:49;4.57;;;3.33;;
79261;SDS011;68699;48.220;16.358;2023-07-08T11:47:52;3.70;;;3.40;;
79261;SDS011;68699;48.220;16.358;2023-07-08T11:52:55;4.20;;;3.80;;
79261;SDS011;68699;48.220;16.358;2023-07-08T11:55:26;3.83;;;3.42;;
79261;SDS011;68699;48.220;16.358;2023-07-08T11:57:54;4.07;;;3.22;;
79261;SDS011;68699;48.220;16.358;2023-07-08T12:00:23;4.05;;;3.60;;
79261;SDS011;68699;48.220;16.358;2023-07-08T12:02:56;5.55;;;3.53;;
79261;SDS011;68699;48.220;16.358;2023-07-08T12:05:30;4.93;;;3.70;;
79261;SDS011;68699;48.220;16.358;2023-07-08T12:07:57;3.95;;;3.55;;
79261;SDS011;68699;48.220;16.358;2023-07-08T12:13:15;3.95;;;3.42;;
79261;SDS011;68699;48.220;16.358;2023-07-08T12:15:43;5.25;;;3.55;;
79261;SDS011;68699;48.220;16.358;2023-07-08T12:20:42;3.65;;;3.33;;
79261;SDS011;68699;48.220;16.358;2023-07-08T12:23:13;3.67;;;3.38;;
79261;SDS011;68699;48.220;16.358;2023-07-08T12:25:40;3.72;;;2.92;;
79261;SDS011;68699;48.220;16.358;2023-07-08T12:28:06;3.70;;;3.35;;
79261;SDS011;68699;48.220;16.358;2023-07-08T12:30:32;4.57;;;3.42;;
79261;SDS011;68699;48.220;16.358;2023-07-08T12:32:59;5.72;;;4.40;;
79261;SDS011;68699;48.220;16.358;2023-07-08T12:35:27;3.60;;;3.30;;
79261;SDS011;68699;48.220;16.358;2023-07-08T12:37:55;3.70;;;3.40;;
79261;SDS011;68699;48.220;16.358;2023-07-08T12:40:22;3.53;;;3.20;;
79261;SDS011;68699;48.220;16.358;2023-07-08T12:42:48;4.45;;;3.50;;
79261;SDS011;68699;48.220;16.358;2023-07-08T12:45:16;3.88;;;3.58;;
79261;SDS011;68699;48.220;16.358;2023-07-08T12:47:43;4.00;;;3.70;;
79261;SDS011;68699;48.220;16.358;2023-07-08T12:50:10;4.97;;;3.67;;
79261;SDS011;68699;48.220;16.358;2023-07-08T12:52:36;3.97;;;3.28;;
79261;SDS011;68699;48.220;16.358;2023-07-08T12:55:03;4.30;;;3.28;;
79261;SDS011;68699;48.220;16.358;2023-07-08T12:57:30;3.90;;;3.50;;
79261;SDS011;68699;48.220;16.358;2023-07-08T12:59:56;4.78;;;3.63;;
79261;SDS011;68699;48.220;16.358;2023-07-08T13:02:23;4.00;;;3.28;;
79261;SDS011;68699;48.220;16.358;2023-07-08T13:04:53;3.08;;;2.88;;
79261;SDS011;68699;48.220;16.358;2023-07-08T13:07:25;3.80;;;3.42;;
79261;SDS011;68699;48.220;16.358;2023-07-08T13:09:54;3.85;;;3.25;;
79261;SDS011;68699;48.220;16.358;2023-07-08T13:12:20;4.30;;;3.42;;
79261;SDS011;68699;48.220;16.358;2023-07-08T13:14:49;4.15;;;3.20;;
79261;SDS011;68699;48.220;16.358;2023-07-08T13:17:16;3.45;;;3.17;;
79261;SDS011;68699;48.220;16.358;2023-07-08T13:19:43;4.43;;;3.45;;
79261;SDS011;68699;48.220;16.358;2023-07-08T13:22:15;4.65;;;3.30;;
79261;SDS011;68699;48.220;16.358;2023-07-08T13:24:42;3.88;;;3.47;;
79261;SDS011;68699;48.220;16.358;2023-07-08T13:27:10;3.50;;;3.03;;
79261;SDS011;68699;48.220;16.358;2023-07-08T13:29:39;5.20;;;3.33;;
79261;SDS011;68699;48.220;16.358;2023-07-08T13:32:05;5.07;;;3.42;;
79261;SDS011;68699;48.220;16.358;2023-07-08T13:34:32;4.03;;;3.05;;
79261;SDS011;68699;48.220;16.358;2023-07-08T13:36:59;4.30;;;3.40;;
79261;SDS011;68699;48.220;16.358;2023-07-08T13:39:27;3.90;;;3.50;;
79261;SDS011;68699;48.220;16.358;2023-07-08T13:41:55;3.83;;;3.28;;
79261;SDS011;68699;48.220;16.358;2023-07-08T13:44:21;4.03;;;3.60;;
79261;SDS011;68699;48.220;16.358;2023-07-08T13:49:25;4.20;;;3.45;;
79261;SDS011;68699;48.220;16.358;2023-07-08T13:52:05;3.88;;;3.58;;
79261;SDS011;68699;48.220;16.358;2023-07-08T13:54:35;3.28;;;3.08;;
79261;SDS011;68699;48.220;16.358;2023-07-08T13:57:08;4.10;;;3.50;;
79261;SDS011;68699;48.220;16.358;2023-07-08T13:59:34;3.75;;;3.40;;
79261;SDS011;68699;48.220;16.358;2023-07-08T14:02:00;3.13;;;2.92;;
79261;SDS011;68699;48.220;16.358;2023-07-08T14:04:29;3.60;;;3.30;;
79261;SDS011;68699;48.220;16.358;2023-07-08T14:06:55;3.55;;;3.30;;
79261;SDS011;68699;48.220;16.358;2023-07-08T14:09:22;4.20;;;3.25;;
79261;SDS011;68699;48.220;16.358;2023-07-08T14:11:49;3.60;;;3.05;;
79261;SDS011;68699;48.220;16.358;2023-07-08T14:14:16;5.35;;;2.85;;
79261;SDS011;68699;48.220;16.358;2023-07-08T14:16:44;3.53;;;3.22;;
79261;SDS011;68699;48.220;16.358;2023-07-08T14:19:17;4.25;;;3.30;;
79261;SDS011;68699;48.220;16.358;2023-07-08T14:21:45;3.10;;;2.90;;
79261;SDS011;68699;48.220;16.358;2023-07-08T14:24:12;3.38;;;3.03;;
79261;SDS011;68699;48.220;16.358;2023-07-08T14:26:45;3.35;;;3.05;;
79261;SDS011;68699;48.220;16.358;2023-07-08T14:29:11;4.15;;;3.15;;
79261;SDS011;68699;48.220;16.358;2023-07-08T14:31:38;4.40;;;3.20;;
79261;SDS011;68699;48.220;16.358;2023-07-08T14:34:20;5.05;;;3.70;;
79261;SDS011;68699;48.220;16.358;2023-07-08T14:36:47;3.47;;;3.20;;
79261;SDS011;68699;48.220;16.358;2023-07-08T14:39:16;3.85;;;3.55;;
79261;SDS011;68699;48.220;16.358;2023-07-08T14:41:43;3.50;;;3.20;;
79261;SDS011;68699;48.220;16.358;2023-07-08T14:46:44;3.28;;;3.00;;
79261;SDS011;68699;48.220;16.358;2023-07-08T14:49:14;3.67;;;3.10;;
79261;SDS011;68699;48.220;16.358;2023-07-08T14:51:41;3.80;;;3.42;;
79261;SDS011;68699;48.220;16.358;2023-07-08T14:54:07;3.65;;;3.35;;
79261;SDS011;68699;48.220;16.358;2023-07-08T14:56:33;3.50;;;3.08;;
79261;SDS011;68699;48.220;16.358;2023-07-08T14:58:59;6.07;;;3.45;;
79261;SDS011;68699;48.220;16.358;2023-07-08T15:01:26;3.38;;;3.17;;
79261;SDS011;68699;48.220;16.358;2023-07-08T15:03:55;3.70;;;3.40;;
79261;SDS011;68699;48.220;16.358;2023-07-08T15:06:22;3.50;;;3.13;;
79261;SDS011;68699;48.220;16.358;2023-07-08T15:08:48;4.88;;;3.38;;
79261;SDS011;68699;48.220;16.358;2023-07-08T15:11:14;4.97;;;3.50;;
79261;SDS011;68699;48.220;16.358;2023-07-08T15:13:41;5.07;;;3.72;;
79261;SDS011;68699;48.220;16.358;2023-07-08T15:16:14;3.80;;;3.50;;
79261;SDS011;68699;48.220;16.358;2023-07-08T15:18:40;3.70;;;3.40;;
79261;SDS011;68699;48.220;16.358;2023-07-08T15:21:09;3.42;;;3.15;;
79261;SDS011;68699;48.220;16.358;2023-07-08T15:23:36;3.80;;;3.50;;
79261;SDS011;68699;48.220;16.358;2023-07-08T15:26:02;3.90;;;3.55;;
79261;SDS011;68699;48.220;16.358;2023-07-08T15:28:48;4.18;;;3.75;;
79261;SDS011;68699;48.220;16.358;2023-07-08T15:31:19;3.38;;;3.10;;
79261;SDS011;68699;48.220;16.358;2023-07-08T15:33:49;3.67;;;3.13;;
79261;SDS011;68699;48.220;16.358;2023-07-08T15:36:16;4.90;;;3.65;;
79261;SDS011;68699;48.220;16.358;2023-07-08T15:38:44;3.60;;;3.30;;
79261;SDS011;68699;48.220;16.358;2023-07-08T15:41:32;4.35;;;3.08;;
79261;SDS011;68699;48.220;16.358;2023-07-08T15:43:59;4.65;;;3.40;;
79261;SDS011;68699;48.220;16.358;2023-07-08T15:46:29;3.60;;;3.30;;
79261;SDS011;68699;48.220;16.358;2023-07-08T15:48:56;4.53;;;3.20;;
79261;SDS011;68699;48.220;16.358;2023-07-08T15:51:24;3.63;;;3.33;;